Terminal Aerodrome Forecast
Issued by NWS

Home | Current Version | Previous Version | Graphics & Text | Print | Product List | Glossary Off
Versions: 1 2 3 4 5 6 7 8 9 10 11 12 13 14 15 16 17 18 19 20 21 22

000
FTUS43 KTOP 261129
TAFMHK
TAF
KMHK 261129Z 2612/2712 23003KT 2SM BR MIFG VV002
      TEMPO 2612/2614 1/4SM FG
     FM261600 25008KT P6SM FEW200
     FM262100 33007KT P6SM SCT050=

USA.gov is the U.S. government's official web portal to all federal, state and local government web resources and services.